°C

Conditions at local time : on    Forecast:

Nearby METAR Reports

EGKA - Shoreham-By-Sea, United Kingdom
Distance from station: ENE 4mi, 6km
Updated: Mon, 26-Oct-2020 7:50pm GMT
NOT Current
Clear
Clear
 Wind from W
Wind: W 8 mph , 13 km/h
Temperature: 9°C
Wind Chill: 7°C
Dew Point: 7°C
Humidity: 87%
Barometer: 1001 hPa
Summary: Clear
Visibility: greater than 7 miles , 10 km
2020/10/26 19:50 EGKA 261950Z 26007KT CAVOK 09/07 Q1001
EGKK - London/Gatwick A, United Kingdom
Distance from station: NNE 24mi, 39km
Updated: Tue, 27-Oct-2020 5:20am GMT
Clear
Clear
 Wind from SSW
Wind: SSW 2 mph , 4 km/h
Temperature: 7°C
Dew Point: 6°C
Humidity: 93%
Barometer: 1001 hPa
Summary: Clear
Visibility: greater than 7 miles , 10 km
2020/10/27 05:20 EGKK 270520Z 21002KT CAVOK 07/06 Q1001
 
EGLF - Farnborough, United Kingdom
Distance from station: NNW 37mi, 59km
Updated: Tue, 27-Oct-2020 5:20am GMT
Clear
Clear
 Wind from S
Wind: S 8 mph , 13 km/h
Temperature: 8°C
Wind Chill: 6°C
Dew Point: 6°C
Humidity: 87%
Barometer: 1001 hPa
Clouds: Clear
Visibility: 6 miles , 10 km
2020/10/27 05:20 EGLF 270520Z AUTO 19007KT 9999 NCD 08/06 Q1001
EGVO - Odiham Raf, United Kingdom
Distance from station: NW 38mi, 61km
Updated: Tue, 27-Oct-2020 4:50am GMT
Overcast
Overcast
 Wind from SSW
Wind: SSW 12 mph , 19 km/h
Temperature: 8°C
Wind Chill: 4°C
Dew Point: 7°C
Humidity: 93%
Barometer: 1000 hPa
Clouds: Overcast
Visibility: 6 miles , 10 km
Cloud details: Few Clouds 1524 m
Overcast 4267 m
2020/10/27 04:50 EGVO 270450Z AUTO 20010KT 9999 FEW050/// OVC140/// 08/07 Q1000